createdAt,value
2023-01-25T00:02:12.876Z,1141.07
2023-01-25T00:04:39.455Z,1048.00
2023-01-25T00:07:06.062Z,835.67
2023-01-25T00:09:32.710Z,1348.37
2023-01-25T00:11:59.279Z,1239.93
2023-01-25T00:14:25.889Z,1115.87
2023-01-25T00:16:53.200Z,1269.97
2023-01-25T00:19:20.037Z,1061.63
2023-01-25T00:21:46.578Z,1077.63
2023-01-25T00:24:14.733Z,871.80
2023-01-25T00:26:44.132Z,960.53
2023-01-25T00:29:14.657Z,977.10
2023-01-25T00:31:57.063Z,724.70
2023-01-25T00:34:23.605Z,740.87
2023-01-25T00:37:25.301Z,713.50
2023-01-25T00:39:52.439Z,695.57
2023-01-25T00:42:20.261Z,1152.90
2023-01-25T00:44:48.291Z,1088.50
2023-01-25T00:47:16.087Z,787.17
2023-01-25T00:49:43.968Z,678.67
2023-01-25T00:52:11.236Z,865.87
2023-01-25T00:54:38.283Z,992.53
2023-01-25T00:57:05.053Z,996.70
2023-01-25T00:59:31.664Z,1172.33
2023-01-25T01:01:58.757Z,820.67
2023-01-25T01:04:25.518Z,994.07
2023-01-25T01:06:55.976Z,792.23
2023-01-25T01:09:24.030Z,742.43
2023-01-25T01:11:50.633Z,424.37
2023-01-25T01:14:17.257Z,480.13
2023-01-25T01:16:43.870Z,593.93
2023-01-25T01:19:10.789Z,526.83
2023-01-25T01:21:37.939Z,481.83
2023-01-25T01:24:05.091Z,433.80
2023-01-25T01:26:32.015Z,418.53
2023-01-25T01:28:59.579Z,568.77
2023-01-25T01:31:26.563Z,311.13
2023-01-25T01:33:55.326Z,366.60
2023-01-25T01:36:27.800Z,604.43
2023-01-25T01:38:54.435Z,500.97
2023-01-25T01:41:21.460Z,599.17
2023-01-25T01:43:48.439Z,409.13
2023-01-25T01:46:37.322Z,558.10
2023-01-25T01:49:16.503Z,656.77
2023-01-25T01:51:50.578Z,550.47
2023-01-25T01:54:24.181Z,485.70
2023-01-25T01:57:16.340Z,471.23
2023-01-25T02:00:08.997Z,218.83
2023-01-25T02:02:35.831Z,252.27
2023-01-25T02:05:07.318Z,598.00
2023-01-25T02:07:37.066Z,639.20
2023-01-25T02:10:06.550Z,528.27
2023-01-25T02:12:33.237Z,515.57
2023-01-25T02:14:59.875Z,510.63
2023-01-25T02:17:29.800Z,542.37
2023-01-25T02:20:24.489Z,369.87
2023-01-25T02:23:02.863Z,550.80
2023-01-25T02:25:29.854Z,400.07
2023-01-25T02:28:07.397Z,509.73
2023-01-25T02:30:34.312Z,581.90
2023-01-25T02:33:01.117Z,520.43
2023-01-25T02:35:38.916Z,565.27
2023-01-25T02:38:07.218Z,718.60
2023-01-25T02:40:44.167Z,548.73
2023-01-25T02:43:10.864Z,409.50
2023-01-25T02:45:37.519Z,486.17
2023-01-25T02:48:04.436Z,663.83
2023-01-25T02:50:31.013Z,469.23
2023-01-25T02:52:57.551Z,531.43
2023-01-25T02:55:24.131Z,337.83
2023-01-25T02:57:50.810Z,233.00
2023-01-25T03:00:18.026Z,383.27
2023-01-25T03:02:44.658Z,568.27
2023-01-25T03:05:11.254Z,465.17
2023-01-25T03:07:37.844Z,535.93
2023-01-25T03:10:04.965Z,653.50
2023-01-25T03:12:31.790Z,605.60
2023-01-25T03:14:58.318Z,639.93
2023-01-25T03:17:25.103Z,658.90
2023-01-25T03:19:53.965Z,435.90
2023-01-25T03:22:20.590Z,413.37
2023-01-25T03:24:47.170Z,417.03
2023-01-25T03:27:18.483Z,481.77
2023-01-25T03:29:45.672Z,398.47
2023-01-25T03:32:12.614Z,537.90
2023-01-25T03:34:39.344Z,669.77
2023-01-25T03:37:05.931Z,658.97
2023-01-25T03:39:32.525Z,577.47
2023-01-25T03:41:59.071Z,205.77
2023-01-25T03:44:25.649Z,565.53
2023-01-25T03:46:52.300Z,178.17
2023-01-25T03:49:19.158Z,303.13
2023-01-25T03:51:46.004Z,370.60
2023-01-25T03:54:12.963Z,780.80
2023-01-25T03:56:39.504Z,771.57
2023-01-25T03:59:06.099Z,652.33
2023-01-25T04:01:32.850Z,662.77
2023-01-25T04:03:59.425Z,225.40
2023-01-25T04:06:25.990Z,495.73
2023-01-25T04:08:52.569Z,715.93
2023-01-25T04:11:19.136Z,926.03
2023-01-25T04:13:45.842Z,856.87
2023-01-25T04:16:12.645Z,894.00
2023-01-25T04:18:40.773Z,797.00
2023-01-25T04:21:07.558Z,652.33
2023-01-25T04:23:34.172Z,716.27
2023-01-25T04:26:05.145Z,618.20
2023-01-25T04:28:33.063Z,841.03
2023-01-25T04:31:00.111Z,722.07
2023-01-25T04:33:27.792Z,548.63
2023-01-25T04:35:54.395Z,726.27
2023-01-25T04:38:21.517Z,689.33
2023-01-25T04:40:48.027Z,574.80
2023-01-25T04:43:16.386Z,559.73
2023-01-25T04:45:43.103Z,366.30
2023-01-25T04:48:11.418Z,291.17
2023-01-25T04:50:42.630Z,481.70
2023-01-25T04:53:10.794Z,235.53
2023-01-25T04:55:37.383Z,549.33
2023-01-25T04:58:04.714Z,490.97
2023-01-25T05:00:32.455Z,472.40
2023-01-25T05:02:59.079Z,128.77
2023-01-25T05:05:25.870Z,288.03
2023-01-25T05:07:52.506Z,691.33
2023-01-25T05:10:19.206Z,733.60
2023-01-25T05:12:45.779Z,567.10
2023-01-25T05:15:12.617Z,377.63
2023-01-25T05:17:39.285Z,518.13
2023-01-25T05:20:06.243Z,303.60
2023-01-25T05:22:32.864Z,440.10
2023-01-25T05:24:59.497Z,438.63
2023-01-25T05:27:26.217Z,478.33
2023-01-25T05:29:52.919Z,656.27
2023-01-25T05:32:21.579Z,712.17
2023-01-25T05:34:49.286Z,617.23
2023-01-25T05:37:18.708Z,773.77
2023-01-25T05:39:45.571Z,755.17
2023-01-25T05:42:14.469Z,531.30
2023-01-25T05:44:41.254Z,608.03
2023-01-25T05:47:12.723Z,693.67
2023-01-25T05:49:39.327Z,574.43
2023-01-25T05:52:06.064Z,286.33
2023-01-25T05:54:32.761Z,438.07
2023-01-25T05:57:00.153Z,276.17
2023-01-25T05:59:26.853Z,263.77
2023-01-25T06:01:53.954Z,139.50
2023-01-25T06:04:20.595Z,121.30
2023-01-25T06:06:47.284Z,491.70
2023-01-25T06:09:14.436Z,217.53
2023-01-25T06:11:45.047Z,412.60
2023-01-25T06:14:11.702Z,434.83
2023-01-25T06:16:38.355Z,613.93
2023-01-25T06:19:06.441Z,489.13
2023-01-25T06:21:38.072Z,458.73
2023-01-25T06:24:05.207Z,316.50
2023-01-25T06:26:31.779Z,178.93
2023-01-25T06:28:58.539Z,457.93
2023-01-25T06:31:25.319Z,571.83
2023-01-25T06:33:52.796Z,275.43
2023-01-25T06:36:21.267Z,242.20
2023-01-25T06:38:50.720Z,612.43
2023-01-25T06:41:18.384Z,469.27
2023-01-25T06:43:45.259Z,438.10
2023-01-25T06:46:12.692Z,508.57
2023-01-25T06:48:40.039Z,397.57
2023-01-25T06:51:08.893Z,1068.27
2023-01-25T06:53:39.584Z,509.47
2023-01-25T06:56:12.126Z,772.93
2023-01-25T06:58:39.893Z,419.30
2023-01-25T07:01:12.017Z,425.63
2023-01-25T07:03:39.093Z,427.37
2023-01-25T07:06:08.275Z,670.93
2023-01-25T07:08:35.648Z,628.50
2023-01-25T07:11:05.479Z,695.53
2023-01-25T07:13:34.235Z,478.77
2023-01-25T07:16:06.715Z,447.63
2023-01-25T07:18:34.263Z,222.60
2023-01-25T07:21:10.126Z,564.10
2023-01-25T07:23:38.410Z,210.00
2023-01-25T07:26:06.812Z,338.00
2023-01-25T07:28:33.630Z,231.23
2023-01-25T07:31:07.350Z,253.37
2023-01-25T07:33:35.157Z,440.10
2023-01-25T07:36:02.954Z,282.57
2023-01-25T07:38:30.050Z,299.20
2023-01-25T07:40:57.161Z,270.53
2023-01-25T07:43:24.541Z,300.67
2023-01-25T07:45:51.671Z,272.23
2023-01-25T07:48:19.688Z,93.57
2023-01-25T07:50:49.633Z,149.47
2023-01-25T07:53:17.115Z,144.37
2023-01-25T07:55:44.056Z,179.07
2023-01-25T07:58:13.525Z,230.70
2023-01-25T08:00:40.438Z,104.53
2023-01-25T08:03:08.090Z,152.77
2023-01-25T08:05:34.683Z,92.40
2023-01-25T08:08:01.406Z,108.83
2023-01-25T08:10:28.062Z,79.40
2023-01-25T08:12:54.589Z,146.97
2023-01-25T08:15:21.174Z,114.00
2023-01-25T08:17:47.735Z,82.07
2023-01-25T08:20:14.294Z,90.00
2023-01-25T08:22:40.909Z,85.43
2023-01-25T08:25:08.377Z,295.23
2023-01-25T08:27:35.349Z,208.07
2023-01-25T08:30:02.438Z,199.80
2023-01-25T08:32:28.998Z,750.93
2023-01-25T08:34:55.551Z,702.37
2023-01-25T08:37:22.118Z,601.37
2023-01-25T08:39:48.649Z,239.33
2023-01-25T08:42:15.272Z,577.47
2023-01-25T08:44:41.845Z,617.00
2023-01-25T08:47:08.443Z,598.90
2023-01-25T08:49:35.100Z,675.87
2023-01-25T08:52:01.790Z,673.90
2023-01-25T08:54:28.713Z,616.43
2023-01-25T08:56:55.422Z,637.27
2023-01-25T08:59:22.181Z,463.57
2023-01-25T09:01:49.051Z,710.63
2023-01-25T09:04:15.596Z,670.53
2023-01-25T09:06:42.252Z,423.47
2023-01-25T09:09:09.046Z,418.07
2023-01-25T09:11:38.034Z,481.93
2023-01-25T09:14:05.267Z,409.23
2023-01-25T09:16:31.936Z,566.27
2023-01-25T09:19:01.538Z,545.47
2023-01-25T09:21:29.033Z,741.70
2023-01-25T09:24:11.515Z,831.17
2023-01-25T09:26:43.004Z,831.60
2023-01-25T09:29:11.964Z,383.40
2023-01-25T09:31:40.806Z,447.17
2023-01-25T09:34:08.710Z,297.97
2023-01-25T09:36:36.237Z,248.83
2023-01-25T09:39:03.315Z,687.60
2023-01-25T09:42:14.630Z,634.70
2023-01-25T09:45:19.432Z,630.43
2023-01-25T09:47:59.299Z,469.30
2023-01-25T09:50:33.710Z,471.37
2023-01-25T09:53:22.390Z,729.80
2023-01-25T09:56:03.576Z,164.73
2023-01-25T09:58:37.532Z,818.83
2023-01-25T10:01:37.472Z,721.53
2023-01-25T10:04:10.167Z,779.00
2023-01-25T10:06:40.805Z,713.10
2023-01-25T10:09:24.705Z,659.93
2023-01-25T10:11:51.334Z,569.43
2023-01-25T10:14:19.538Z,627.53
2023-01-25T10:16:50.082Z,693.80
2023-01-25T10:19:48.903Z,525.73
2023-01-25T10:22:20.119Z,569.40
2023-01-25T10:25:13.806Z,496.30
2023-01-25T10:27:58.484Z,608.93
2023-01-25T10:30:24.967Z,427.80
2023-01-25T10:32:56.042Z,368.40
2023-01-25T10:35:35.356Z,156.30
2023-01-25T10:38:15.200Z,268.93
2023-01-25T10:40:48.636Z,677.57
2023-01-25T10:43:22.308Z,545.97
2023-01-25T10:45:50.478Z,606.33
2023-01-25T10:48:38.974Z,559.93
2023-01-25T10:51:05.766Z,649.97
2023-01-25T10:53:34.316Z,308.37
2023-01-25T10:56:17.212Z,372.27
2023-01-25T10:58:46.362Z,537.50
2023-01-25T11:01:25.525Z,553.97
2023-01-25T11:03:52.399Z,238.83
2023-01-25T11:06:30.633Z,297.60
2023-01-25T11:08:57.280Z,311.70
2023-01-25T11:11:26.921Z,222.83
2023-01-25T11:13:55.334Z,627.80
2023-01-25T11:16:33.182Z,660.20
2023-01-25T11:19:02.808Z,408.03
2023-01-25T11:21:31.864Z,643.40
2023-01-25T11:24:09.344Z,436.47
2023-01-25T11:26:38.681Z,237.83
2023-01-25T11:29:22.086Z,513.73
2023-01-25T11:31:53.777Z,649.87
2023-01-25T11:34:25.563Z,393.17
2023-01-25T11:37:36.840Z,85.07
2023-01-25T11:40:23.626Z,238.80
2023-01-25T11:43:28.203Z,557.97
2023-01-25T11:46:03.995Z,558.00
2023-01-25T11:48:47.160Z,426.60
2023-01-25T11:51:43.678Z,171.47
2023-01-25T11:54:34.248Z,366.07
2023-01-25T11:57:13.442Z,301.53
2023-01-25T12:00:36.316Z,211.00
2023-01-25T12:03:21.700Z,697.87
2023-01-25T12:06:12.868Z,721.27
2023-01-25T12:09:21.787Z,299.13
2023-01-25T12:11:57.123Z,377.47
2023-01-25T12:14:30.705Z,372.13
2023-01-25T12:17:24.933Z,442.87
2023-01-25T12:20:31.497Z,191.40
2023-01-25T12:23:18.696Z,84.43
2023-01-25T12:25:52.442Z,116.90
2023-01-25T12:28:31.937Z,505.80
2023-01-25T12:31:07.730Z,686.37
2023-01-25T12:33:49.164Z,289.00
2023-01-25T12:36:15.645Z,432.03
2023-01-25T12:39:13.094Z,231.00
2023-01-25T12:41:44.564Z,121.83
2023-01-25T12:44:27.673Z,342.03
2023-01-25T12:47:18.941Z,555.33
2023-01-25T12:50:22.908Z,216.97
2023-01-25T12:52:54.100Z,539.03
2023-01-25T12:55:20.903Z,259.63
2023-01-25T12:58:00.416Z,250.77
2023-01-25T13:00:35.581Z,336.53
2023-01-25T13:03:24.027Z,346.40
2023-01-25T13:06:42.099Z,350.83
2023-01-25T13:09:23.523Z,377.60
2023-01-25T13:11:50.510Z,225.30
2023-01-25T13:14:17.569Z,370.93
2023-01-25T13:16:45.631Z,495.00
2023-01-25T13:19:30.196Z,193.77
2023-01-25T13:21:58.500Z,200.50
2023-01-25T13:24:27.958Z,378.07
2023-01-25T13:26:54.465Z,238.97
2023-01-25T13:29:36.014Z,228.60
2023-01-25T13:32:04.856Z,551.30
2023-01-25T13:34:39.144Z,588.60
2023-01-25T13:37:29.220Z,262.37
2023-01-25T13:40:06.051Z,586.87
2023-01-25T13:42:36.281Z,440.93
2023-01-25T13:45:24.828Z,588.73
2023-01-25T13:48:13.084Z,858.30
2023-01-25T13:50:50.335Z,320.70
2023-01-25T13:53:16.841Z,102.60
2023-01-25T13:55:50.485Z,231.37
2023-01-25T13:58:18.869Z,989.73
2023-01-25T14:00:49.980Z,532.23
2023-01-25T14:03:17.202Z,535.57
2023-01-25T14:05:52.533Z,358.50
2023-01-25T14:08:20.858Z,700.30
2023-01-25T14:10:48.984Z,183.53
2023-01-25T14:13:17.480Z,215.00
2023-01-25T14:15:56.516Z,144.27
2023-01-25T14:18:35.272Z,310.23
2023-01-25T14:21:10.738Z,392.27
2023-01-25T14:23:37.494Z,278.77
2023-01-25T14:26:04.489Z,378.90
2023-01-25T14:28:31.247Z,121.77
2023-01-25T14:31:01.297Z,257.13
2023-01-25T14:33:30.439Z,406.30
2023-01-25T14:36:22.840Z,221.43
2023-01-25T14:38:50.615Z,183.53
2023-01-25T14:41:30.159Z,109.47
2023-01-25T14:44:17.956Z,102.27
2023-01-25T14:46:44.544Z,165.97
2023-01-25T14:49:27.209Z,170.90
2023-01-25T14:52:09.920Z,162.70
2023-01-25T14:54:44.471Z,289.93
2023-01-25T14:57:33.076Z,76.70
2023-01-25T15:00:01.318Z,115.13
2023-01-25T15:02:39.588Z,109.27
2023-01-25T15:05:20.134Z,113.53
2023-01-25T15:07:53.630Z,99.00
2023-01-25T15:10:24.405Z,164.03
2023-01-25T15:13:19.276Z,132.13
2023-01-25T15:15:58.338Z,141.70
2023-01-25T15:18:40.226Z,101.40
2023-01-25T15:21:10.626Z,72.73
2023-01-25T15:23:37.297Z,73.03
2023-01-25T15:26:13.567Z,112.57
2023-01-25T15:28:40.313Z,162.53
2023-01-25T15:31:07.013Z,129.73
2023-01-25T15:33:34.680Z,55.50
2023-01-25T15:36:01.344Z,100.30
2023-01-25T15:38:28.229Z,110.63
2023-01-25T15:41:00.413Z,84.87
2023-01-25T15:43:27.409Z,102.37
2023-01-25T15:45:57.453Z,89.80
2023-01-25T15:48:31.042Z,95.90
2023-01-25T15:50:57.724Z,95.17
2023-01-25T15:53:24.709Z,162.83
2023-01-25T15:56:13.340Z,187.27
2023-01-25T15:58:42.957Z,275.50
2023-01-25T16:01:10.002Z,59.37
2023-01-25T16:03:38.723Z,238.27
2023-01-25T16:06:31.269Z,525.07
2023-01-25T16:09:03.077Z,453.70
2023-01-25T16:11:29.822Z,367.30
2023-01-25T16:13:57.946Z,618.13
2023-01-25T16:16:25.753Z,464.50
2023-01-25T16:18:52.497Z,801.03
2023-01-25T16:21:19.330Z,808.03
2023-01-25T16:23:46.134Z,1107.67
2023-01-25T16:26:20.672Z,665.57
2023-01-25T16:28:47.275Z,540.20
2023-01-25T16:31:30.822Z,271.37
2023-01-25T16:33:58.324Z,1047.40
2023-01-25T16:36:24.952Z,821.57
2023-01-25T16:38:51.664Z,1090.07
2023-01-25T16:41:18.798Z,525.17
2023-01-25T16:43:47.558Z,749.23
2023-01-25T16:46:19.993Z,894.97
2023-01-25T16:48:48.573Z,745.27
2023-01-25T16:51:22.064Z,700.33
2023-01-25T16:53:50.416Z,593.27
2023-01-25T16:56:21.076Z,686.47
2023-01-25T16:58:49.225Z,785.97
2023-01-25T17:01:18.138Z,730.17
2023-01-25T17:03:45.161Z,858.90
2023-01-25T17:06:22.444Z,851.53
2023-01-25T17:08:49.983Z,716.80
2023-01-25T17:11:22.033Z,683.30
2023-01-25T17:13:50.340Z,676.87
2023-01-25T17:16:18.373Z,611.93
2023-01-25T17:18:45.041Z,562.90
2023-01-25T17:21:14.612Z,675.10
2023-01-25T17:23:42.201Z,385.67
2023-01-25T17:26:11.791Z,351.00
2023-01-25T17:28:39.169Z,564.40
2023-01-25T17:31:13.024Z,347.03
2023-01-25T17:33:39.643Z,473.87
2023-01-25T17:36:06.481Z,520.63
2023-01-25T17:38:33.047Z,330.57
2023-01-25T17:41:07.049Z,563.53
2023-01-25T17:43:34.619Z,590.37
2023-01-25T17:46:30.057Z,610.73
2023-01-25T17:48:57.972Z,476.87
2023-01-25T17:51:26.307Z,577.77
2023-01-25T17:53:53.388Z,561.17
2023-01-25T17:56:20.257Z,336.53
2023-01-25T17:58:46.917Z,590.43
2023-01-25T18:01:22.091Z,949.13
2023-01-25T18:03:50.217Z,1092.13
2023-01-25T18:06:22.299Z,742.03
2023-01-25T18:08:51.231Z,395.73
2023-01-25T18:11:24.620Z,789.00
2023-01-25T18:13:54.584Z,854.03
2023-01-25T18:16:22.383Z,1082.90
2023-01-25T18:18:50.948Z,545.20
2023-01-25T18:21:24.140Z,862.93
2023-01-25T18:23:53.192Z,832.60
2023-01-25T18:26:23.523Z,455.00
2023-01-25T18:28:52.095Z,704.83
2023-01-25T18:31:18.965Z,568.77
2023-01-25T18:33:45.699Z,1596.20
2023-01-25T18:36:19.276Z,670.67
2023-01-25T18:38:46.162Z,603.80
2023-01-25T18:41:12.917Z,548.90
2023-01-25T18:43:39.456Z,778.60
2023-01-25T18:46:06.273Z,842.63
2023-01-25T18:48:33.371Z,441.00
2023-01-25T18:51:08.949Z,171.40
2023-01-25T18:53:37.521Z,713.70
2023-01-25T18:56:15.190Z,610.00
2023-01-25T18:58:42.571Z,649.57
2023-01-25T19:01:17.813Z,881.37
2023-01-25T19:03:46.513Z,998.10
2023-01-25T19:06:14.078Z,1118.70
2023-01-25T19:08:46.509Z,996.47
2023-01-25T19:11:19.930Z,1439.47
2023-01-25T19:13:46.635Z,1261.87
2023-01-25T19:16:16.165Z,727.87
2023-01-25T19:18:47.881Z,924.50
2023-01-25T19:21:19.599Z,1540.60
2023-01-25T19:23:46.598Z,1451.10
2023-01-25T19:26:16.684Z,781.20
2023-01-25T19:28:43.996Z,1079.93
2023-01-25T19:31:18.347Z,1419.03
2023-01-25T19:33:45.180Z,821.70
2023-01-25T19:36:16.735Z,945.63
2023-01-25T19:38:43.523Z,801.73
2023-01-25T19:41:12.981Z,559.20
2023-01-25T19:43:43.733Z,593.97
2023-01-25T19:46:16.021Z,584.13
2023-01-25T19:48:44.945Z,669.67
2023-01-25T19:51:21.881Z,766.43
2023-01-25T19:54:03.140Z,974.07
2023-01-25T19:56:33.272Z,753.40
2023-01-25T19:59:03.191Z,786.27
2023-01-25T20:01:30.536Z,853.00
2023-01-25T20:03:58.447Z,1034.27
2023-01-25T20:06:26.752Z,1158.80
2023-01-25T20:08:54.416Z,546.07
2023-01-25T20:11:27.280Z,874.23
2023-01-25T20:13:59.812Z,632.27
2023-01-25T20:16:27.548Z,717.10
2023-01-25T20:18:56.378Z,692.40
2023-01-25T20:21:24.732Z,354.17
2023-01-25T20:23:55.157Z,277.67
2023-01-25T20:26:24.185Z,920.73
2023-01-25T20:28:52.825Z,387.40
2023-01-25T20:31:23.372Z,682.07
2023-01-25T20:33:51.759Z,267.00
2023-01-25T20:36:18.943Z,124.33
2023-01-25T20:38:45.984Z,462.60
2023-01-25T20:41:14.420Z,407.47
2023-01-25T20:43:52.750Z,311.93
2023-01-25T20:46:21.572Z,759.30
2023-01-25T20:48:48.686Z,704.57
2023-01-25T20:51:21.560Z,518.20
2023-01-25T20:53:49.870Z,390.53
2023-01-25T20:56:17.992Z,662.30
2023-01-25T20:58:50.651Z,168.93
2023-01-25T21:01:18.551Z,133.57
2023-01-25T21:03:45.422Z,573.57
2023-01-25T21:06:12.749Z,232.37
2023-01-25T21:08:39.721Z,260.70
2023-01-25T21:11:06.966Z,609.73
2023-01-25T21:13:33.898Z,786.47
2023-01-25T21:16:02.085Z,352.53
2023-01-25T21:18:38.421Z,349.90
2023-01-25T21:21:09.361Z,454.03
2023-01-25T21:23:38.858Z,260.43
2023-01-25T21:26:06.495Z,596.90
2023-01-25T21:28:33.805Z,409.27
2023-01-25T21:31:37.690Z,135.27
2023-01-25T21:34:05.345Z,295.37
2023-01-25T21:36:32.211Z,481.73
2023-01-25T21:38:58.985Z,209.00
2023-01-25T21:41:29.357Z,390.67
2023-01-25T21:44:16.319Z,512.57
2023-01-25T21:46:51.331Z,279.20
2023-01-25T21:49:46.005Z,216.37
2023-01-25T21:52:12.572Z,385.00
2023-01-25T21:54:39.171Z,198.70
2023-01-25T21:57:08.486Z,195.30
2023-01-25T21:59:38.451Z,165.57
2023-01-25T22:02:07.679Z,199.57
2023-01-25T22:04:36.128Z,179.77
2023-01-25T22:07:03.547Z,180.73
2023-01-25T22:09:30.207Z,117.60
2023-01-25T22:11:56.800Z,84.00
2023-01-25T22:14:23.406Z,178.53
2023-01-25T22:16:51.356Z,170.97
2023-01-25T22:19:18.471Z,218.07
2023-01-25T22:21:45.464Z,147.80
2023-01-25T22:24:12.563Z,239.90
2023-01-25T22:26:45.266Z,118.93
2023-01-25T22:29:12.812Z,130.67
2023-01-25T22:31:39.878Z,128.53
2023-01-25T22:34:06.606Z,85.27
2023-01-25T22:36:33.828Z,92.43
2023-01-25T22:39:00.496Z,66.17
2023-01-25T22:41:30.545Z,161.00
2023-01-25T22:43:57.959Z,126.60
2023-01-25T22:46:27.686Z,265.00
2023-01-25T22:48:54.743Z,125.07
2023-01-25T22:51:25.499Z,65.00
2023-01-25T22:53:52.956Z,71.67
2023-01-25T22:56:22.764Z,135.90
2023-01-25T22:58:49.998Z,221.07
2023-01-25T23:01:22.659Z,197.10
2023-01-25T23:03:50.053Z,142.97
2023-01-25T23:06:19.575Z,168.77
2023-01-25T23:08:47.563Z,66.00
2023-01-25T23:11:20.653Z,97.03
2023-01-25T23:14:06.228Z,299.77
2023-01-25T23:16:35.261Z,26.33
2023-01-25T23:19:03.955Z,83.93
2023-01-25T23:21:30.783Z,89.00
2023-01-25T23:24:00.730Z,62.63
2023-01-25T23:26:46.334Z,187.83
2023-01-25T23:29:13.453Z,139.20
2023-01-25T23:31:40.449Z,67.50
2023-01-25T23:34:07.450Z,100.43
2023-01-25T23:36:38.637Z,47.77
2023-01-25T23:39:05.465Z,46.20
2023-01-25T23:41:32.052Z,119.27
2023-01-25T23:43:59.657Z,308.50
2023-01-25T23:46:27.699Z,508.93
2023-01-25T23:48:54.410Z,487.90
2023-01-25T23:51:21.141Z,473.20
2023-01-25T23:53:48.299Z,618.20
2023-01-25T23:56:21.335Z,683.97
2023-01-25T23:58:49.012Z,576.40
